Etihad Airways Virtual Airport Information Service

Muscat International Airport

ICAO: OOMS Country: Oman
Latitude: 23.5933 Longitude: 58.2844
Latest Arrival : ETD382 (OMAA-OOMS) Latest Departure : ETD383 (OOMS-OMAA)


WX CaptureLIVE
Data provided by noaa.gov | Recorded at 03:58:16

METAR : OOMS 190250Z 24003KT 5000 DU NSC 18/13 Q1015 NOSIG

TAF :


Runway Data for OOMS
Data provided by openaviationdata.com

Runway ID Mag Var Hdg Length Elevation Surface ILS Freq ILS Id ILS Slope

Muscat International Airport, Oman
Use only for reference purposes